Ghotki Weather



Ghotki's Current Weather

Temprature 43o haze

haze

Rain: 0 %

Min Temprature43o
Max Temprature43o
Humidity32
Wind Speed5.1 m/h
Sun Rise05:27:58
Sun Set19:22:45
Current Time: 26-Jun-2019 14:57:50
Lat/Lon: 28.01, 69.32




Ghotki's Geo Location



Ghotki's Weather Forecast

Time Overall Temp Min Temp Max Temp Humidity Wind Speed Rain
26-Jun-2019 (Wed)
17:00:00 clear sky 42.640 42.640 45.250 13 6.28 m/h 0 %
20:00:00 scattered clouds 39.190 39.190 41.147 16 2.95 m/h 0 %
23:00:00 few clouds 36.740 36.740 38.040 32 7.5 m/h 0 %
27-Jun-2019 (Thu)
02:00:00 clear sky 35.530 35.530 36.179 38 5.99 m/h 0 %
05:00:00 clear sky 34.465 34.465 34.465 40 7.64 m/h 0 %
08:00:00 clear sky 36.050 36.050 36.050 37 7.87 m/h 0 %
11:00:00 clear sky 43.474 43.474 43.474 17 4.79 m/h 0 %
14:00:00 clear sky 47.250 47.250 47.250 10 4.77 m/h 0 %
17:00:00 clear sky 47.280 47.280 47.280 9 5.25 m/h 0 %
20:00:00 clear sky 41.794 41.794 41.794 19 8.82 m/h 0 %
23:00:00 clear sky 34.135 34.135 34.135 46 10.26 m/h 0 %
28-Jun-2019 (Fri)
02:00:00 clear sky 33.028 33.028 33.028 46 6.86 m/h 0 %
05:00:00 clear sky 30.728 30.728 30.728 53 5.65 m/h 0 %
08:00:00 clear sky 32.539 32.539 32.539 49 5.32 m/h 0 %
11:00:00 clear sky 39.825 39.825 39.825 27 3.42 m/h 0 %
14:00:00 clear sky 45.531 45.531 45.531 14 3.78 m/h 0 %
17:00:00 clear sky 46.550 46.550 46.550 11 4.8 m/h 0 %
20:00:00 clear sky 40.350 40.350 40.350 24 8.71 m/h 0 %
23:00:00 clear sky 33.972 33.972 33.972 49 9.14 m/h 0 %
29-Jun-2019 (Sat)
02:00:00 clear sky 30.672 30.672 30.672 62 7.18 m/h 0 %
05:00:00 clear sky 28.879 28.879 28.879 69 5.39 m/h 0 %
08:00:00 clear sky 31.977 31.977 31.977 56 4.03 m/h 0 %
11:00:00 clear sky 39.750 39.750 39.750 31 3.52 m/h 0 %
14:00:00 clear sky 45.550 45.550 45.550 16 2.67 m/h 0 %
17:00:00 clear sky 47.491 47.491 47.491 10 3.98 m/h 0 %
20:00:00 clear sky 42.250 42.250 42.250 15 5.47 m/h 0 %
23:00:00 clear sky 34.950 34.950 34.950 47 9.33 m/h 0 %
30-Jun-2019 (Sun)
02:00:00 clear sky 32.136 32.136 32.136 55 8.96 m/h 0 %
05:00:00 clear sky 29.952 29.952 29.952 66 7.08 m/h 0 %
08:00:00 clear sky 32.592 32.592 32.592 55 6.3 m/h 0 %
11:00:00 clear sky 40.418 40.418 40.418 31 4.91 m/h 0 %
14:00:00 clear sky 46.208 46.208 46.208 18 5.23 m/h 0 %
17:00:00 clear sky 47.050 47.050 47.050 15 5.4 m/h 0 %
20:00:00 clear sky 41.850 41.850 41.850 22 6.46 m/h 0 %
23:00:00 clear sky 35.250 35.250 35.250 46 8.41 m/h 0 %
01-Jul-2019 (Mon)
02:00:00 clear sky 30.850 30.850 30.850 63 7.91 m/h 0 %
05:00:00 clear sky 29.135 29.135 29.135 70 6.63 m/h 0 %
08:00:00 clear sky 31.650 31.650 31.650 59 5.73 m/h 0 %
11:00:00 clear sky 38.950 38.950 38.950 33 4.11 m/h 0 %
14:00:00 clear sky 44.850 44.850 44.850 18 4.03 m/h 0 %

Famous Cities (60)